Jonesboro, Illinois
Current Conditions -  °F | °C
As of 11:53 AM on Saturday 22 Nov 2014 (Local Time) from KCGI Reporting Station
Few Clouds Few Clouds  
Wind Chill: 61°   Ceiling: Unl
Heat Index: 61°   Visibility: 10mi
Dew Point: 48°   Wind: 17mph
Humidity: 62%   Direction: 190°S
Pressure: 30.14"   Gusts: 24mph
Location:  37.45°N, 89.27°W
Report Text: KCGI 221753Z 19015G21KT 10SM FEW060 16/09 A3014 RMK AO2 SLP206 60002 T01610089 10161 20094 58026
Loading
Personal Weather Stations






























Interactive Weather Map New forecast layout! Learn more

10-Day Weather Forecast

Advertisements
Track Severe Weather on mobile